WetterOnline ( https://www.wetteronline.de )

Wetter aktuell Cottbus

Aktuelles Wetter: Cottbus (70m)

6-stündlich | Neueste Meldungen
Ortszeit Temperatur Wetter
Fr, 03.02. 7:00 4.5° C bewölkt
Fr, 03.02. 1:00 0.0° C bedeckt
Do, 02.02. 19:00 -0.2° C bedeckt
Do, 02.02. 13:00 5.9° C bewölkt
Do, 02.02. 7:00 4.3° C Sprühregen
Do, 02.02. 1:00 3.4° C leicht bewölkt
Mi, 01.02. 19:00 3.6° C leichter Regen
Mi, 01.02. 13:00 5.3° C bedeckt
Ortszeit Temperatur Wetter
Fr, 03.02. 11:00 6.9° C Sprühregen
Fr, 03.02. 10:50 6.9° C Sprühregen
Fr, 03.02. 10:40 6.9° C Sprühregen
Fr, 03.02. 10:30 6.8° C Sprühregen
Fr, 03.02. 10:20 6.8° C Sprühregen
Fr, 03.02. 10:10 6.8° C leichter Regen
Fr, 03.02. 10:00 6.9° C bewölkt
Fr, 03.02. 9:30 6.7° C leichter Regen
Fr, 03.02. 9:00 6.3° C leichter Regen
Fr, 03.02. 8:30 6.0° C leichter Regen
Fr, 03.02. 8:00 6.0° C leichter Regen
Ortszeit Relative Feuchte Sichtweite
Fr, 03.02. 7:00 95% 20 km
Fr, 03.02. 1:00 96% 26 km
Do, 02.02. 19:00 94% 50 km
Do, 02.02. 13:00 69% 40 km
Do, 02.02. 7:00 83% 45 km
Do, 02.02. 1:00 81% 45 km
Mi, 01.02. 19:00 92% 16 km
Mi, 01.02. 13:00 82% 55 km
Ortszeit Relative Feuchte Sichtweite
Fr, 03.02. 11:00 93% 6 km
Fr, 03.02. 10:50 93% -
Fr, 03.02. 10:40 93% -
Fr, 03.02. 10:30 93% 12 km
Fr, 03.02. 10:20 93% -
Fr, 03.02. 10:10 92% -
Fr, 03.02. 10:00 91% 30 km
Fr, 03.02. 9:30 92% 11 km
Fr, 03.02. 9:00 94% 5.0 km
Fr, 03.02. 8:30 95% 6 km
Fr, 03.02. 8:00 93% 6 km
Ortszeit Niederschlagsmenge Niederschlagsart
Fr, 03.02. 7:00 2 l/m2 in 12 Std. Regen
Fr, 03.02. 1:00 0.0 l/m2 in 6 Std. -
Do, 02.02. 19:00 0.4 l/m2 in 12 Std. Regen
Do, 02.02. 13:00 0.3 l/m2 in 6 Std. Regen
Do, 02.02. 7:00 0.6 l/m2 in 12 Std. Regen
Do, 02.02. 1:00 0.2 l/m2 in 6 Std. Regen
Mi, 01.02. 19:00 3 l/m2 in 12 Std. Regen
Mi, 01.02. 13:00 1 l/m2 in 6 Std. Regen
Ortszeit Niederschlagsmenge Niederschlagsart
Fr, 03.02. 11:00 0.1 l/m2 in 1 Std. Regen
Fr, 03.02. 10:50 keine Meldung -
Fr, 03.02. 10:40 keine Meldung -
Fr, 03.02. 10:30 <0.05 l/m2 in 30 Min -
Fr, 03.02. 10:20 keine Meldung -
Fr, 03.02. 10:10 keine Meldung -
Fr, 03.02. 10:00 0.2 l/m2 in 1 Std. Regen
Fr, 03.02. 9:30 0.1 l/m2 in 30 Min -
Fr, 03.02. 9:00 0.4 l/m2 in 1 Std. Regen
Fr, 03.02. 8:30 0.1 l/m2 in 30 Min -
Fr, 03.02. 8:00 0.2 l/m2 in 1 Std. Regen
Ortszeit Stärke Spitze Richtung
km/h Bft. km/h Grad Sektor
Fr, 03.02. 7:00 13 3 30 250° W
Fr, 03.02. 1:00 7 2 11 210° SW
Do, 02.02. 19:00 6 1 41 330° NW
Do, 02.02. 13:00 17 3 41 290° W
Do, 02.02. 7:00 18 3 54 280° W
Do, 02.02. 1:00 22 4 47 260° W
Mi, 01.02. 19:00 18 3 61 290° W
Mi, 01.02. 13:00 18 3 50 270° W
Ortszeit Stärke Spitze Richtung
km/h Bft. km/h Grad Sektor
Fr, 03.02. 11:00 30 5 50 250° W
Fr, 03.02. 10:50 30 5 - 250° W
Fr, 03.02. 10:40 28 4 - 250° W
Fr, 03.02. 10:30 28 4 50 250° W
Fr, 03.02. 10:20 28 4 - 250° W
Fr, 03.02. 10:10 29 5 - 250° W
Fr, 03.02. 10:00 28 4 46 250° W
Fr, 03.02. 9:30 28 4 43 250° W
Fr, 03.02. 9:00 22 4 36 250° W
Fr, 03.02. 8:30 18 3 36 250° W
Fr, 03.02. 8:00 22 4 36 260° W
Ortszeit Untergrenze Bedeckung Gattung
total tief tief mittel hoch
Fr, 03.02. 7:00 240 m 7/8 7/8 - - -
Fr, 03.02. 1:00 3000 m 8/8 8/8 - - -
Do, 02.02. 19:00 6300 m 8/8 8/8 - - -
Do, 02.02. 13:00 810 m 7/8 7/8 - - -
Do, 02.02. 7:00 540 m 7/8 7/8 - - -
Do, 02.02. 1:00 870 m 4/8 3/8 - - -
Mi, 01.02. 19:00 360 m 8/8 8/8 - - -
Mi, 01.02. 13:00 390 m 8/8 8/8 - - -
Ortszeit Bedeckungsgrad in Achtel und Wolkenuntergrenze
Fr, 03.02. 11:00 7(270m) 8(540m)
Fr, 03.02. 10:50 7(270m) 8(540m)
Fr, 03.02. 10:40 7
Fr, 03.02. 10:30 7(300m) 8(510m)
Fr, 03.02. 10:20 7(300m) 8(510m)
Fr, 03.02. 10:10 8
Fr, 03.02. 10:00 5(330m) 7(510m)
Fr, 03.02. 9:30 4(360m) 8(540m)
Fr, 03.02. 9:00 2(270m) 4(450m) 8(630m)
Fr, 03.02. 8:30 2(270m) 7(600m) 8(780m)
Fr, 03.02. 8:00 3(360m) 6(690m) 7(900m)
Ortszeit Luftdruck NN (hPa) Tendenz (hPa in 3 Std.)
Fr, 03.02. 7:00 1016 - 3,9
Fr, 03.02. 1:00 1023 - 1,1
Do, 02.02. 19:00 1023 + 4,2
Do, 02.02. 13:00 1016 + 1,5
Do, 02.02. 7:00 1012 + 2,3
Do, 02.02. 1:00 1010 + 0,3
Mi, 01.02. 19:00 1009 - 0,4
Mi, 01.02. 13:00 1010 + 0,5
Ortszeit Luftdruck NN (hPa) Tendenz (hPa in 3 Std.)
Fr, 03.02. 11:00 1012 - 3,2
Fr, 03.02. 10:50 1012 keine Meldung
Fr, 03.02. 10:40 1012 keine Meldung
Fr, 03.02. 10:30 1012 - 3,2
Fr, 03.02. 10:20 1012 keine Meldung
Fr, 03.02. 10:10 1013 keine Meldung
Fr, 03.02. 10:00 1013 - 3,0
Fr, 03.02. 9:30 1014 - 2,7
Fr, 03.02. 9:00 1014 - 2,8
Fr, 03.02. 8:30 1015 - 2,6
Fr, 03.02. 8:00 1015 - 3,4
Ortszeit Schneehöhe (cm)
Fr, 03.02. 7:00 0
Fr, 03.02. 1:00 0
Do, 02.02. 19:00 0
Do, 02.02. 13:00 0
Do, 02.02. 7:00 0
Do, 02.02. 1:00 0
Mi, 01.02. 19:00 0
Mi, 01.02. 13:00 0
Ortszeit Schneehöhe (cm)
Fr, 03.02. 11:00 0
Fr, 03.02. 10:50 0
Fr, 03.02. 10:40 0
Fr, 03.02. 10:30 0
Fr, 03.02. 10:20 0
Fr, 03.02. 10:10 0
Fr, 03.02. 10:00 0
Fr, 03.02. 9:30 0
Fr, 03.02. 9:00 0
Fr, 03.02. 8:30 0
Fr, 03.02. 8:00 0
Link zu dieser Seite / Seite empfehlen

Das Wetter in ...